Henderson, West Virginia
Current Conditions -  °F | °C
As of 1:35 AM on Monday 24 Nov 2014 (Local Time) from K3I2 Reporting Station
Overcast Overcast  
Wind Chill: 63°   Ceiling: 4700
Heat Index: 63°   Visibility: 10mi
Dew Point: 54°   Wind: 14mph
Humidity: 72%   Direction: 210°SSW
Pressure: 29.41"   Gusts: 24mph
Location:  38.83°N, 82.14°W
Report Text: K3I2 240635Z AUTO 21012G21KT 10SM SCT039 OVC047 17/12 A2941 RMK AO2
Loading
Personal Weather Stations






























Interactive Weather Map New forecast layout! Learn more

10-Day Weather Forecast

Advertisements
Track Severe Weather on mobile